ルクソール の空港の天気 - METARとTAF

ルクソール国際空港 ( HELX / LXR ) - エジプト ルクソール
飛行場実況気象(Metar)
観測時間10/19 19:00 EET (10/19 17:00 UTC)
風向・風速静穏 0m/s
視程10km以上
天気現象
なし
気温28℃
湿度42%
気圧1011hPa
METARHELX 191700Z 00000KT CAVOK 28/14 Q1011 NOSIG
過去の天気等 Google飛行場航空写真 Wunderground天気予報

過去48時間のMETAR

飛行場予報(TAF)
発表時間: 10/19 19:00 EET (10/19 17:00 UTC)
予報対象時間: 19日20時 EET ~ 21日2時 EET
風向・風速北北西 3m/s
視程10km以上
なし
TAF HELX 191700Z 1918/2024 33006KT CAVOK